Time;durP1;ratioP1;P1;durP2;ratioP2;P2;SDS_P1;SDS_P2;PMS_P1;PMS_P2;Temp;Humidity;BMP_temperature;BMP_pressure;BME280_temperature;BME280_humidity;BME280_pressure;Samples;Min_cycle;Max_cycle;Signal;HPM_P1;HPM_P2
2023/11/19 00:01:22;;;;;;;9.75;8.75;;;;;;;11.88;100.00;100851.34;5089590;28;20080;-36
2023/11/19 00:03:48;;;;;;;9.88;8.85;;;;;;;11.90;100.00;100866.28;5089914;28;20032;-36
2023/11/19 00:06:13;;;;;;;9.57;8.65;;;;;;;11.85;100.00;100849.91;5089883;28;20028;-36
2023/11/19 00:08:39;;;;;;;9.20;8.40;;;;;;;11.91;100.00;100858.97;5079741;28;20134;-36
2023/11/19 00:11:04;;;;;;;10.60;7.93;;;;;;;11.93;100.00;100856.84;5076486;28;20033;-36
2023/11/19 00:13:30;;;;;;;9.00;8.07;;;;;;;11.84;100.00;100834.72;5074932;28;20093;-36
2023/11/19 00:15:56;;;;;;;9.47;7.67;;;;;;;11.94;100.00;100848.47;5076700;28;20055;-36
2023/11/19 00:18:22;;;;;;;8.88;7.28;;;;;;;11.96;100.00;100829.28;5076057;28;20081;-36
2023/11/19 00:20:47;;;;;;;7.95;7.10;;;;;;;11.98;100.00;100827.97;5076373;28;20028;-36
2023/11/19 00:23:13;;;;;;;9.93;7.40;;;;;;;11.96;100.00;100819.28;5076817;28;20020;-36
2023/11/19 00:25:38;;;;;;;12.00;8.27;;;;;;;11.99;100.00;100807.94;5075980;28;20467;-36
2023/11/19 00:28:04;;;;;;;8.90;6.70;;;;;;;12.00;100.00;100820.41;5075905;28;20020;-36
2023/11/19 00:30:31;;;;;;;15.02;7.57;;;;;;;12.01;100.00;100816.66;5076752;28;20369;-36
2023/11/19 00:32:56;;;;;;;10.65;6.93;;;;;;;11.92;100.00;100799.13;5075764;28;20059;-36
2023/11/19 00:35:21;;;;;;;10.90;6.45;;;;;;;12.02;100.00;100806.63;5076346;28;20024;-36
2023/11/19 00:37:47;;;;;;;9.87;6.50;;;;;;;11.95;100.00;100798.63;5075956;28;20387;-36
2023/11/19 00:40:15;;;;;;;11.02;6.43;;;;;;;12.00;100.00;100812.28;5075703;28;20278;-36
2023/11/19 00:42:41;;;;;;;11.98;6.78;;;;;;;11.98;100.00;100800.06;5075330;28;20035;-36
2023/11/19 00:45:09;;;;;;;8.83;5.80;;;;;;;12.06;100.00;100810.50;5076465;28;20029;-36
2023/11/19 00:47:35;;;;;;;13.75;6.53;;;;;;;12.05;100.00;100820.53;5075480;28;20273;-36
2023/11/19 00:50:01;;;;;;;13.45;6.35;;;;;;;11.97;100.00;100793.00;5075839;28;20028;-36
2023/11/19 00:52:26;;;;;;;;;;;;;;;12.07;100.00;100814.88;5076278;28;20025;-36
2023/11/19 00:54:51;;;;;;;9.43;5.07;;;;;;;12.03;100.00;100819.94;5075480;28;20384;-36
2023/11/19 00:57:17;;;;;;;8.03;4.73;;;;;;;12.04;100.00;100816.16;5076512;28;20602;-36
2023/11/19 00:59:43;;;;;;;12.25;5.95;;;;;;;11.99;100.00;100802.50;5075072;28;20437;-36
2023/11/19 01:02:09;;;;;;;8.48;4.75;;;;;;;12.05;100.00;100804.28;5075340;28;20535;-36
2023/11/19 01:04:35;;;;;;;10.40;4.47;;;;;;;12.11;100.00;100824.16;5075199;28;20060;-36
2023/11/19 01:07:03;;;;;;;7.38;3.85;;;;;;;12.02;100.00;100806.63;5075223;28;20037;-36
2023/11/19 01:09:32;;;;;;;12.63;4.18;;;;;;;12.13;100.00;100821.19;5075148;28;20024;-36
2023/11/19 01:11:58;;;;;;;13.25;3.90;;;;;;;12.11;100.00;100821.44;5075607;28;20419;-36
2023/11/19 01:14:23;;;;;;;10.88;4.30;;;;;;;12.09;100.00;100810.84;5075249;28;20032;-36
2023/11/19 01:16:48;;;;;;;10.07;3.72;;;;;;;12.13;100.00;100807.66;5074959;28;20115;-36
2023/11/19 01:19:14;;;;;;;8.27;3.33;;;;;;;12.10;100.00;100796.25;5074123;28;20523;-36
2023/11/19 01:21:39;;;;;;;9.60;3.37;;;;;;;12.08;100.00;100783.97;5075384;28;20365;-36
2023/11/19 01:24:09;;;;;;;11.48;3.38;;;;;;;12.06;100.00;100789.66;5074869;28;20028;-36
2023/11/19 01:26:34;;;;;;;13.43;3.80;;;;;;;12.07;100.00;100780.44;5075342;28;20036;-36
2023/11/19 01:29:01;;;;;;;10.07;3.65;;;;;;;12.09;100.00;100766.66;5073531;28;20039;-36
2023/11/19 01:31:26;;;;;;;11.07;3.80;;;;;;;12.10;100.00;100779.13;5074718;28;20102;-36
2023/11/19 01:33:51;;;;;;;13.18;4.22;;;;;;;12.07;100.00;100771.50;5074303;28;20070;-36
2023/11/19 01:36:17;;;;;;;16.13;4.18;;;;;;;11.99;100.00;100767.28;5074897;28;20052;-36
2023/11/19 01:38:42;;;;;;;12.43;4.00;;;;;;;12.06;100.00;100778.00;5074873;28;20029;-36
2023/11/19 01:41:08;;;;;;;13.23;3.93;;;;;;;12.07;100.00;100798.59;5074839;28;20795;-36
2023/11/19 01:43:41;;;;;;;15.93;3.88;;;;;;;12.01;100.00;100794.16;5074171;28;20296;-36
2023/11/19 01:46:06;;;;;;;11.52;3.75;;;;;;;12.07;100.00;100804.84;5074715;28;20020;-43
2023/11/19 01:48:40;;;;;;;12.32;3.17;;;;;;;12.00;100.00;100793.31;5074134;28;20524;-36
2023/11/19 01:51:06;;;;;;;10.63;3.30;;;;;;;12.04;100.00;100793.66;5075121;28;20055;-36
2023/11/19 01:53:33;;;;;;;14.13;3.47;;;;;;;12.02;100.00;100796.63;5073956;28;20037;-36
2023/11/19 01:56:00;;;;;;;13.05;3.97;;;;;;;11.96;100.00;100784.03;5074653;28;20197;-36
2023/11/19 01:58:25;;;;;;;;;;;;;;;12.02;100.00;100790.38;5073969;28;20562;-36
2023/11/19 02:00:51;;;;;;;14.35;3.83;;;;;;;11.96;100.00;100785.94;5074439;28;19980;-36
2023/11/19 02:03:17;;;;;;;10.90;3.72;;;;;;;11.95;100.00;100784.25;5074097;28;20453;-36
2023/11/19 02:05:42;;;;;;;14.82;4.18;;;;;;;11.91;100.00;100783.94;5074066;28;20449;-36
2023/11/19 02:08:08;;;;;;;13.30;3.03;;;;;;;11.91;100.00;100777.66;5073991;28;20031;-36
2023/11/19 02:10:33;;;;;;;13.82;3.63;;;;;;;11.88;100.00;100775.47;5074223;28;20481;-36
2023/11/19 02:12:59;;;;;;;14.80;3.70;;;;;;;11.82;100.00;100752.88;5073669;28;20461;-36
2023/11/19 02:15:24;;;;;;;15.32;4.38;;;;;;;11.77;100.00;100755.44;5073686;28;20385;-36
2023/11/19 02:17:51;;;;;;;14.30;4.30;;;;;;;11.77;100.00;100761.69;5074577;28;20357;-36
2023/11/19 02:20:17;;;;;;;14.52;3.70;;;;;;;11.79;100.00;100764.16;5073868;28;20037;-36
2023/11/19 02:22:44;;;;;;;10.63;3.88;;;;;;;11.83;100.00;100781.59;5074032;28;20092;-36
2023/11/19 02:25:22;;;;;;;18.05;4.15;;;;;;;11.85;100.00;100772.16;5074285;28;20170;-36
2023/11/19 02:27:55;;;;;;;15.30;4.95;;;;;;;11.87;100.00;100779.25;5073971;28;20085;-36
2023/11/19 02:30:23;;;;;;;15.48;4.07;;;;;;;11.85;100.00;100776.75;5073148;28;20490;-36
2023/11/19 02:32:51;;;;;;;14.63;4.07;;;;;;;11.85;100.00;100779.47;5073933;28;20020;-36
2023/11/19 02:35:16;;;;;;;17.25;4.10;;;;;;;11.81;100.00;100781.81;5073932;28;20492;-36
2023/11/19 02:37:42;;;;;;;20.07;5.43;;;;;;;11.85;100.00;100774.03;5073303;28;20020;-36
2023/11/19 02:40:09;;;;;;;18.23;5.20;;;;;;;11.84;100.00;100780.53;5073586;28;20642;-36
2023/11/19 02:42:34;;;;;;;16.00;3.85;;;;;;;11.85;100.00;100784.88;5074101;28;20446;-36
2023/11/19 02:45:00;;;;;;;19.70;4.73;;;;;;;11.89;100.00;100771.69;5074075;28;20028;-36
2023/11/19 02:47:25;;;;;;;19.17;4.53;;;;;;;11.87;100.00;100779.25;5073879;28;20294;-36
2023/11/19 02:49:51;;;;;;;18.93;4.00;;;;;;;11.73;100.00;100765.94;5073556;28;20025;-36
2023/11/19 02:52:18;;;;;;;17.67;4.75;;;;;;;11.85;100.00;100766.72;5073540;28;20047;-36
2023/11/19 02:54:45;;;;;;;17.75;4.75;;;;;;;11.85;100.00;100774.03;5073924;28;20461;-36
2023/11/19 02:57:11;;;;;;;20.30;5.30;;;;;;;11.74;100.00;100761.34;5073450;28;20076;-36
2023/11/19 02:59:41;;;;;;;19.13;4.40;;;;;;;11.77;100.00;100779.84;5073638;28;20043;-36
2023/11/19 03:02:07;;;;;;;19.63;4.95;;;;;;;11.75;100.00;100785.47;5073128;28;20518;-36
2023/11/19 03:04:35;;;;;;;20.92;5.60;;;;;;;11.70;100.00;100782.66;5073326;28;20028;-36
2023/11/19 03:07:00;;;;;;;20.38;4.85;;;;;;;11.64;100.00;100780.91;5073583;28;20515;-36
2023/11/19 03:09:25;;;;;;;25.33;5.73;;;;;;;11.54;100.00;100772.59;5073334;28;20033;-36
2023/11/19 03:11:51;;;;;;;23.50;5.70;;;;;;;11.57;100.00;100786.47;5073575;28;20021;-36
2023/11/19 03:14:16;;;;;;;22.60;4.80;;;;;;;11.55;100.00;100794.00;5073020;28;20099;-36
2023/11/19 03:16:46;;;;;;;25.25;5.80;;;;;;;11.43;100.00;100770.72;5074008;28;20021;-36
2023/11/19 03:19:11;;;;;;;21.60;5.40;;;;;;;11.35;100.00;100774.63;5073165;28;20029;-36
2023/11/19 03:21:37;;;;;;;19.20;4.25;;;;;;;11.41;100.00;100789.91;5073195;28;20529;-36
2023/11/19 03:24:02;;;;;;;22.57;5.90;;;;;;;11.38;100.00;100789.56;5073193;28;20056;-36
2023/11/19 03:26:28;;;;;;;23.70;5.07;;;;;;;11.34;100.00;100786.50;5073717;28;20267;-36
2023/11/19 03:28:54;;;;;;;20.92;5.53;;;;;;;11.30;100.00;100796.97;5073057;28;20477;-36
2023/11/19 03:31:20;;;;;;;20.52;5.18;;;;;;;11.27;100.00;100793.91;5073111;28;20060;-36
2023/11/19 03:33:45;;;;;;;22.38;4.90;;;;;;;11.24;100.00;100789.81;5073013;28;20060;-36
2023/11/19 03:36:12;;;;;;;22.73;5.85;;;;;;;11.18;100.00;100784.53;5073872;28;20053;-36
2023/11/19 03:38:38;;;;;;;22.77;5.57;;;;;;;11.09;100.00;100765.13;5073022;28;20029;-36
2023/11/19 03:41:17;;;;;;;22.53;5.60;;;;;;;11.14;100.00;100784.19;5073032;28;20033;-36
2023/11/19 03:43:42;;;;;;;24.00;5.85;;;;;;;11.13;100.00;100785.25;5075395;28;20036;-36
2023/11/19 03:46:18;;;;;;;22.80;5.05;;;;;;;10.90;100.00;100745.47;5076538;28;20029;-36
2023/11/19 03:48:44;;;;;;;26.98;6.70;;;;;;;11.15;100.00;100790.41;5076647;28;20020;-36
2023/11/19 03:51:09;;;;;;;30.45;6.13;;;;;;;11.14;100.00;100775.25;5076688;28;20031;-36
2023/11/19 03:53:35;;;;;;;22.10;5.43;;;;;;;11.14;100.00;100784.19;5075863;28;20021;-36
2023/11/19 03:56:00;;;;;;;20.65;4.90;;;;;;;11.09;100.00;100774.06;5076315;28;20479;-36
2023/11/19 03:58:26;;;;;;;28.17;5.82;;;;;;;11.03;100.00;100772.31;5076515;28;20032;-36
2023/11/19 04:00:52;;;;;;;30.87;5.87;;;;;;;11.09;100.00;100775.94;5077390;28;20052;-36
2023/11/19 04:03:19;;;;;;;;;;;;;;;11.12;100.00;100783.56;5076788;28;20472;-36
2023/11/19 04:05:44;;;;;;;27.35;6.38;;;;;;;11.09;100.00;100782.19;5076375;28;20003;-36
2023/11/19 04:08:10;;;;;;;26.57;6.03;;;;;;;11.07;100.00;100778.84;5076338;28;20122;-36
2023/11/19 04:10:35;;;;;;;22.07;5.17;;;;;;;11.02;100.00;100769.81;5076592;28;20258;-36
2023/11/19 04:13:01;;;;;;;26.60;4.93;;;;;;;10.91;100.00;100768.75;5077036;28;20056;-36
2023/11/19 04:15:26;;;;;;;29.23;7.50;;;;;;;10.96;100.00;100777.00;5076758;28;20266;-36
2023/11/19 04:17:51;;;;;;;21.38;5.22;;;;;;;11.01;100.00;100785.22;5075757;28;20366;-36
2023/11/19 04:20:17;;;;;;;22.90;6.30;;;;;;;11.01;100.00;100796.03;5076381;28;20102;-36
2023/11/19 04:22:42;;;;;;;26.40;6.20;;;;;;;10.93;100.00;100782.03;5076357;28;20328;-36
2023/11/19 04:25:08;;;;;;;26.57;6.07;;;;;;;10.97;100.00;100780.50;5076111;28;20495;-36
2023/11/19 04:27:34;;;;;;;22.98;5.07;;;;;;;10.99;100.00;100803.59;5075657;28;20437;-36
2023/11/19 04:30:01;;;;;;;18.20;5.27;;;;;;;10.99;100.00;100795.47;5076278;28;20063;-36
2023/11/19 04:32:27;;;;;;;24.80;5.15;;;;;;;10.99;100.00;100792.75;5076138;28;20025;-36
2023/11/19 04:34:52;;;;;;;29.40;5.60;;;;;;;11.02;100.00;100807.69;5075859;28;20490;-36
2023/11/19 04:37:17;;;;;;;24.63;5.67;;;;;;;11.03;100.00;100806.66;5075802;28;20052;-36
2023/11/19 04:39:46;;;;;;;22.03;5.87;;;;;;;11.01;100.00;100812.28;5075468;28;20269;-36
2023/11/19 04:42:12;;;;;;;23.63;5.85;;;;;;;11.01;100.00;100806.06;5076052;28;20027;-36
2023/11/19 04:44:37;;;;;;;;;;;;;;;11.01;100.00;100801.47;5076369;28;20111;-36
2023/11/19 04:47:03;;;;;;;23.52;6.20;;;;;;;10.82;100.00;100778.28;5075956;28;20009;-36
2023/11/19 04:49:28;;;;;;;25.25;5.15;;;;;;;10.98;100.00;100801.94;5075853;28;20028;-36
2023/11/19 04:51:53;;;;;;;30.13;6.63;;;;;;;10.99;100.00;100809.00;5076101;28;20063;-36
2023/11/19 04:54:19;;;;;;;30.63;7.33;;;;;;;10.99;100.00;100817.13;5075436;28;20274;-36
2023/11/19 04:56:47;;;;;;;24.63;6.30;;;;;;;10.95;100.00;100821.34;5075369;28;20504;-36
2023/11/19 04:59:12;;;;;;;27.17;5.93;;;;;;;10.98;100.00;100811.91;5075680;28;20029;-36
2023/11/19 05:01:38;;;;;;;24.17;6.33;;;;;;;10.96;100.00;100819.47;5075466;28;20050;-36
2023/11/19 05:04:03;;;;;;;31.75;6.10;;;;;;;10.95;100.00;100834.88;5074956;28;20472;-36
2023/11/19 05:06:30;;;;;;;27.00;6.88;;;;;;;10.89;100.00;100825.00;5075204;28;20028;-36
2023/11/19 05:09:04;;;;;;;28.20;6.43;;;;;;;10.88;100.00;100825.19;5074864;28;20476;-36
2023/11/19 05:11:30;;;;;;;26.88;6.68;;;;;;;10.82;100.00;100813.44;5075388;28;20480;-36
2023/11/19 05:13:55;;;;;;;23.90;6.15;;;;;;;10.89;100.00;100813.34;5075041;28;20059;-36
2023/11/19 05:16:21;;;;;;;24.50;7.03;;;;;;;10.94;100.00;100816.19;5075305;28;20025;-36
2023/11/19 05:18:46;;;;;;;25.67;6.17;;;;;;;10.92;100.00;100813.69;5074977;28;20039;-36
2023/11/19 05:21:12;;;;;;;27.25;6.40;;;;;;;10.96;100.00;100831.09;5075254;28;20308;-36
2023/11/19 05:23:37;;;;;;;25.55;5.80;;;;;;;10.97;100.00;100830.03;5074892;28;20419;-36
2023/11/19 05:26:03;;;;;;;26.95;6.00;;;;;;;10.95;100.00;100826.75;5074872;28;20384;-36
2023/11/19 05:28:28;;;;;;;26.55;6.55;;;;;;;10.92;100.00;100821.81;5074835;28;20043;-36
2023/11/19 05:30:55;;;;;;;22.70;5.50;;;;;;;10.91;100.00;100828.28;5075390;28;20032;-36
2023/11/19 05:33:20;;;;;;;;;;;;;;;10.90;100.00;100829.34;5075345;28;20278;-36
2023/11/19 05:35:46;;;;;;;26.50;6.80;;;;;;;10.81;100.00;100817.22;5075399;28;19908;-36
2023/11/19 05:38:11;;;;;;;27.05;6.95;;;;;;;10.87;100.00;100827.09;5074906;28;20346;-36
2023/11/19 05:40:38;;;;;;;23.43;6.43;;;;;;;10.86;100.00;100830.84;5074603;28;20029;-36
2023/11/19 05:43:04;;;;;;;20.25;5.90;;;;;;;10.83;100.00;100836.72;5074438;28;20024;-36
2023/11/19 05:45:29;;;;;;;29.33;6.47;;;;;;;10.80;100.00;100853.44;5074475;28;20123;-34
2023/11/19 05:47:54;;;;;;;25.73;5.18;;;;;;;10.68;100.00;100820.94;5072881;28;20038;-35
2023/11/19 05:50:20;;;;;;;24.47;7.10;;;;;;;10.80;100.00;100837.22;5074125;28;20025;-36
2023/11/19 05:52:46;;;;;;;30.67;6.30;;;;;;;10.83;100.00;100839.44;5073953;28;20702;-36
2023/11/19 05:55:11;;;;;;;27.95;6.07;;;;;;;10.81;100.00;100838.84;5073649;28;20036;-36
2023/11/19 05:57:37;;;;;;;27.27;5.97;;;;;;;10.79;100.00;100835.56;5074834;28;20048;-36
2023/11/19 06:00:06;;;;;;;26.15;6.25;;;;;;;10.70;100.00;100829.66;5074179;28;20044;-36
2023/11/19 06:02:33;;;;;;;27.48;5.93;;;;;;;10.75;100.00;100839.78;5073517;28;20366;-36
2023/11/19 06:04:58;;;;;;;24.85;6.03;;;;;;;10.62;100.00;100821.06;5073640;28;20033;-36
2023/11/19 06:07:23;;;;;;;29.90;7.30;;;;;;;10.73;100.00;100836.47;5073428;28;20086;-36
2023/11/19 06:09:49;;;;;;;28.73;5.63;;;;;;;10.73;100.00;100836.47;5074484;28;20392;-36
2023/11/19 06:12:14;;;;;;;26.57;6.33;;;;;;;10.69;100.00;100840.72;5073486;28;20032;-36
2023/11/19 06:14:40;;;;;;;23.25;5.47;;;;;;;10.71;100.00;100833.19;5073634;28;20673;-36
2023/11/19 06:17:05;;;;;;;23.70;5.97;;;;;;;10.69;100.00;100833.44;5073796;28;20453;-36
2023/11/19 06:19:31;;;;;;;24.10;6.30;;;;;;;10.67;100.00;100834.69;5073285;28;20107;-36
2023/11/19 06:21:56;;;;;;;24.20;5.87;;;;;;;10.65;100.00;100831.41;5073515;28;20025;-36
2023/11/19 06:24:22;;;;;;;24.70;6.78;;;;;;;10.63;100.00;100828.09;5073510;28;20649;-36
2023/11/19 06:26:47;;;;;;;26.47;6.73;;;;;;;10.63;100.00;100833.50;5074026;28;20396;-36
2023/11/19 06:29:18;;;;;;;27.92;6.38;;;;;;;10.58;100.00;100828.78;5073919;28;20274;-36
2023/11/19 06:31:43;;;;;;;24.13;5.55;;;;;;;10.54;100.00;100833.00;5073959;28;20099;-35
2023/11/19 06:34:09;;;;;;;28.67;6.47;;;;;;;10.47;100.00;100822.31;5073138;28;20551;-36
2023/11/19 06:36:35;;;;;;;32.70;6.53;;;;;;;10.52;100.00;100833.25;5073598;28;20437;-35
2023/11/19 06:39:00;;;;;;;;;;;;;;;10.51;100.00;100834.31;5073403;28;20461;-36
2023/11/19 06:41:25;;;;;;;23.95;6.43;;;;;;;10.45;100.00;100824.44;5072346;28;19908;-36
2023/11/19 06:43:51;;;;;;;31.27;6.40;;;;;;;10.46;100.00;100828.78;5073727;28;20093;-36
2023/11/19 06:46:17;;;;;;;22.73;5.95;;;;;;;10.40;100.00;100816.19;5073282;28;20457;-35
2023/11/19 06:48:44;;;;;;;26.73;5.78;;;;;;;10.42;100.00;100832.16;5071917;28;20119;-36
2023/11/19 06:51:09;;;;;;;29.20;6.78;;;;;;;10.42;100.00;100824.06;5073189;28;20033;-36
2023/11/19 06:53:35;;;;;;;25.88;6.82;;;;;;;10.43;100.00;100836.50;5073922;28;20031;-36
2023/11/19 06:56:01;;;;;;;;;;;;;;;10.44;100.00;100835.44;5072238;28;20062;-35
2023/11/19 06:58:26;;;;;;;30.48;7.68;;;;;;;10.44;100.00;100847.13;5073400;28;20003;-35
2023/11/19 07:00:51;;;;;;;28.13;6.45;;;;;;;10.43;100.00;100848.16;5073375;28;20108;-36
2023/11/19 07:03:17;;;;;;;29.73;6.73;;;;;;;10.42;100.00;100856.50;5073116;28;20036;-35
2023/11/19 07:05:43;;;;;;;28.65;6.65;;;;;;;10.40;100.00;100859.44;5073382;28;20514;-36
2023/11/19 07:08:09;;;;;;;26.85;6.32;;;;;;;10.27;100.00;100843.41;5073207;28;20031;-36
2023/11/19 07:10:34;;;;;;;23.27;5.87;;;;;;;10.36;100.00;100860.94;5072712;28;20041;-36
2023/11/19 07:13:00;;;;;;;29.90;7.00;;;;;;;10.35;100.00;100872.81;5072706;28;20024;-36
2023/11/19 07:15:25;;;;;;;27.35;5.85;;;;;;;10.34;100.00;100879.25;5072677;28;20630;-36
2023/11/19 07:17:51;;;;;;;26.88;6.22;;;;;;;10.36;100.00;100876.34;5073516;28;20032;-36
2023/11/19 07:20:16;;;;;;;25.10;6.20;;;;;;;10.39;100.00;100884.78;5077223;28;20029;-36
2023/11/19 07:22:45;;;;;;;22.55;5.85;;;;;;;10.36;100.00;100879.88;5077347;28;20164;-36
2023/11/19 07:25:12;;;;;;;27.08;5.68;;;;;;;10.26;100.00;100874.19;5077193;28;20029;-36
2023/11/19 07:27:38;;;;;;;25.35;5.55;;;;;;;10.20;100.00;100870.47;5076483;28;20465;-36
2023/11/19 07:30:05;;;;;;;29.17;6.82;;;;;;;10.32;100.00;100892.19;5076874;28;20111;-36
2023/11/19 07:32:30;;;;;;;31.73;6.60;;;;;;;10.29;100.00;100889.94;5077194;28;20436;-36
2023/11/19 07:34:56;;;;;;;25.80;6.18;;;;;;;10.35;100.00;100899.84;5077409;28;20077;-36
2023/11/19 07:37:22;;;;;;;27.50;6.40;;;;;;;10.26;100.00;100882.28;5076854;28;20120;-36
2023/11/19 07:39:47;;;;;;;28.88;6.88;;;;;;;10.34;100.00;100891.94;5076522;28;20032;-36
2023/11/19 07:42:13;;;;;;;27.27;6.20;;;;;;;10.36;100.00;100892.56;5076897;28;20120;-36
2023/11/19 07:44:38;;;;;;;27.73;6.22;;;;;;;10.36;100.00;100898.78;5076990;28;20025;-36
2023/11/19 07:47:04;;;;;;;24.33;6.30;;;;;;;10.32;100.00;100892.19;5077044;28;20442;-36
2023/11/19 07:49:30;;;;;;;30.88;7.25;;;;;;;10.33;100.00;100885.72;5076665;28;20705;-36
2023/11/19 07:51:56;;;;;;;25.60;6.63;;;;;;;10.42;100.00;100888.94;5077185;28;20035;-36
2023/11/19 07:54:21;;;;;;;28.27;5.80;;;;;;;10.39;100.00;100892.09;5076245;28;20016;-36
2023/11/19 07:56:47;;;;;;;29.17;6.80;;;;;;;10.46;100.00;100890.13;5077190;28;20059;-36
2023/11/19 07:59:12;;;;;;;26.92;5.82;;;;;;;10.46;100.00;100895.53;5076531;28;20037;-36
2023/11/19 08:01:37;;;;;;;28.10;6.40;;;;;;;10.46;100.00;100900.94;5075694;28;20035;-36
2023/11/19 08:04:03;;;;;;;22.67;6.43;;;;;;;10.50;100.00;100907.56;5076153;28;20345;-36
2023/11/19 08:06:28;;;;;;;35.05;7.30;;;;;;;10.49;100.00;100912.13;5077484;28;20364;-36
2023/11/19 08:08:54;;;;;;;27.77;6.97;;;;;;;10.54;100.00;100906.00;5076302;28;20024;-36
2023/11/19 08:11:19;;;;;;;30.52;6.45;;;;;;;10.59;100.00;100925.09;5076595;28;20027;-36
2023/11/19 08:13:45;;;;;;;24.20;5.88;;;;;;;10.61;100.00;100900.53;5076246;28;20032;-36
2023/11/19 08:16:10;;;;;;;23.58;6.22;;;;;;;10.71;100.00;100908.91;5076114;28;20021;-36
2023/11/19 08:18:36;;;;;;;22.38;5.45;;;;;;;10.74;100.00;100916.56;5076118;28;20115;-35
2023/11/19 08:21:04;;;;;;;30.92;5.97;;;;;;;10.76;100.00;100915.28;5076880;28;20056;-36
2023/11/19 08:23:30;;;;;;;27.42;6.25;;;;;;;10.75;100.00;100910.09;5075902;28;20108;-35
2023/11/19 08:25:55;;;;;;;25.15;6.00;;;;;;;10.86;100.00;100920.13;5076197;28;20107;-35
2023/11/19 08:28:20;;;;;;;27.48;6.50;;;;;;;10.91;100.00;100924.84;5075776;28;20032;-36
2023/11/19 08:30:46;;;;;;;32.40;8.07;;;;;;;10.90;100.00;100913.22;5076477;28;20123;-36
2023/11/19 08:33:12;;;;;;;24.63;6.38;;;;;;;11.01;100.00;100923.22;5075955;28;20029;-36
2023/11/19 08:35:37;;;;;;;27.70;6.68;;;;;;;11.05;100.00;100908.19;5076473;28;20032;-35
2023/11/19 08:38:02;;;;;;;22.67;5.80;;;;;;;10.92;100.00;100878.63;5075469;28;20027;-35
2023/11/19 08:40:29;;;;;;;31.07;7.57;;;;;;;11.14;100.00;100910.56;5075826;28;20024;-36
2023/11/19 08:42:55;;;;;;;25.38;6.07;;;;;;;11.16;100.00;100905.72;5075710;28;20111;-36
2023/11/19 08:45:21;;;;;;;;;;;;;;;11.21;100.00;100913.97;5076394;28;20074;-36
2023/11/19 08:47:46;;;;;;;25.50;5.85;;;;;;;11.21;100.00;100903.97;5076111;28;20322;-35
2023/11/19 08:50:11;;;;;;;25.43;5.87;;;;;;;11.25;100.00;100910.56;5076471;28;20085;-36
2023/11/19 08:52:37;;;;;;;24.80;5.80;;;;;;;11.24;100.00;100913.50;5075724;28;20274;-36
2023/11/19 08:55:05;;;;;;;30.42;6.63;;;;;;;11.26;100.00;100914.91;5075176;28;20028;-36
2023/11/19 08:57:30;;;;;;;25.08;6.28;;;;;;;11.28;100.00;100903.88;5075580;28;20075;-36
2023/11/19 08:59:56;;;;;;;28.70;7.18;;;;;;;11.32;100.00;100908.59;5075736;28;20469;-36
2023/11/19 09:02:21;;;;;;;33.47;7.82;;;;;;;11.38;100.00;100909.53;5075307;28;20520;-36
2023/11/19 09:04:46;;;;;;;25.10;6.30;;;;;;;11.40;100.00;100901.97;5075661;28;20032;-36
2023/11/19 09:07:12;;;;;;;24.77;6.43;;;;;;;11.41;100.00;100909.03;5075312;28;20028;-36
2023/11/19 09:09:38;;;;;;;33.03;11.43;;;;;;;11.41;100.00;100916.34;5075275;28;20027;-36
2023/11/19 09:12:04;;;;;;;28.83;8.45;;;;;;;11.45;100.00;100910.22;5074888;28;20021;-36
2023/11/19 09:14:30;;;;;;;32.53;8.00;;;;;;;11.47;100.00;100910.81;5074773;28;20025;-36
2023/11/19 09:16:55;;;;;;;;;;;;;;;11.52;100.00;100902.81;5075382;28;20116;-36
2023/11/19 09:19:21;;;;;;;27.65;6.68;;;;;;;11.40;100.00;100893.84;5074940;28;19958;-36
2023/11/19 09:21:47;;;;;;;27.20;6.40;;;;;;;11.34;100.00;100878.56;5074958;28;20032;-36
2023/11/19 09:24:13;;;;;;;29.08;6.90;;;;;;;11.44;100.00;100892.31;5075376;28;20033;-36
2023/11/19 09:26:41;;;;;;;30.42;8.25;;;;;;;11.56;100.00;100901.25;5075227;28;20063;-36
2023/11/19 09:29:07;;;;;;;29.52;7.53;;;;;;;11.59;100.00;100895.38;5074433;28;20024;-36
2023/11/19 09:31:32;;;;;;;;;;;;;;;11.67;100.00;100893.38;5075723;28;20035;-35
2023/11/19 09:33:58;;;;;;;25.52;6.28;;;;;;;11.65;100.00;100890.06;5074709;28;20295;-36
2023/11/19 09:36:23;;;;;;;31.10;7.47;;;;;;;11.66;100.00;100895.25;5074880;28;20025;-36
2023/11/19 09:38:48;;;;;;;26.43;7.03;;;;;;;11.71;100.00;100894.53;5074616;28;20277;-36
2023/11/19 09:41:15;;;;;;;22.90;5.63;;;;;;;11.77;100.00;100899.84;5074077;28;20063;-36
2023/11/19 09:43:41;;;;;;;32.58;7.53;;;;;;;11.68;100.00;100886.91;5074465;28;20029;-36
2023/11/19 09:46:11;;;;;;;24.58;6.60;;;;;;;11.72;100.00;100893.50;5075062;28;20432;-36
2023/11/19 09:48:37;;;;;;;28.77;7.85;;;;;;;11.81;100.00;100905.63;5074342;28;20036;-36
2023/11/19 09:51:04;;;;;;;24.70;6.25;;;;;;;11.83;100.00;100915.19;5074924;28;20041;-36
2023/11/19 09:53:31;;;;;;;26.15;6.72;;;;;;;11.87;100.00;100917.44;5074224;28;20028;-36
2023/11/19 09:55:59;;;;;;;22.15;5.97;;;;;;;11.88;100.00;100919.06;5074509;28;20116;-36
2023/11/19 09:58:25;;;;;;;26.63;6.28;;;;;;;11.80;100.00;100901.25;5075029;28;20040;-36
2023/11/19 10:00:51;;;;;;;30.33;8.05;;;;;;;11.89;100.00;100902.56;5074760;28;20423;-36
2023/11/19 10:03:17;;;;;;;26.88;6.40;;;;;;;11.90;100.00;100906.91;5074115;28;20032;-35
2023/11/19 10:05:42;;;;;;;21.90;5.20;;;;;;;11.92;100.00;100904.81;5074659;28;20381;-36
2023/11/19 10:08:08;;;;;;;25.30;5.95;;;;;;;11.98;100.00;100900.31;5072870;28;20055;-36
2023/11/19 10:10:34;;;;;;;24.88;6.15;;;;;;;12.00;100.00;100907.13;5074821;28;20032;-36
2023/11/19 10:13:01;;;;;;;28.25;6.20;;;;;;;12.02;100.00;100905.03;5073966;28;20027;-35
2023/11/19 10:15:26;;;;;;;28.48;6.65;;;;;;;12.03;100.00;100911.28;5074151;28;20050;-36
2023/11/19 10:17:55;;;;;;;24.30;6.32;;;;;;;12.02;100.00;100899.59;5073779;28;20021;-36
2023/11/19 10:20:21;;;;;;;20.42;5.57;;;;;;;12.01;100.00;100908.81;5074500;28;20380;-35
2023/11/19 10:22:46;;;;;;;25.00;5.73;;;;;;;12.07;100.00;100897.00;5073837;28;20027;-36
2023/11/19 10:25:25;;;;;;;21.92;5.80;;;;;;;12.04;100.00;100892.03;5073899;28;20090;-36
2023/11/19 10:27:55;;;;;;;27.08;6.22;;;;;;;12.13;100.00;100905.22;5073744;28;20392;-35
2023/11/19 10:30:23;;;;;;;22.40;6.55;;;;;;;12.16;100.00;100888.50;5074023;28;20020;-36
2023/11/19 10:33:14;;;;;;;26.27;6.57;;;;;;;12.22;100.00;100911.94;5073725;28;20033;-35
2023/11/19 10:35:59;;;;;;;24.80;5.80;;;;;;;12.24;100.00;100901.66;5073947;28;20354;-36
2023/11/19 10:38:26;;;;;;;29.63;6.95;;;;;;;12.28;100.00;100900.13;5073557;28;20158;-35
2023/11/19 10:40:52;;;;;;;23.40;5.93;;;;;;;12.34;100.00;100899.16;5074444;28;20028;-36
2023/11/19 10:43:24;;;;;;;22.88;6.00;;;;;;;12.29;100.00;100878.19;5073597;28;20048;-36
2023/11/19 10:45:50;;;;;;;24.20;5.57;;;;;;;12.43;100.00;100889.56;5074362;28;20055;-36
2023/11/19 10:48:16;;;;;;;25.25;5.90;;;;;;;12.51;100.00;100899.22;5073565;28;20044;-36
2023/11/19 10:50:43;;;;;;;29.58;6.45;;;;;;;12.55;100.00;100895.78;5073535;28;20037;-36
2023/11/19 10:53:15;;;;;;;19.83;5.35;;;;;;;12.51;100.00;100881.06;5073305;28;20111;-36
2023/11/19 10:55:42;;;;;;;24.58;5.60;;;;;;;12.49;100.00;100868.78;5073234;28;20423;-36
2023/11/19 10:58:09;;;;;;;24.58;6.13;;;;;;;12.51;100.00;100881.06;5073890;28;20028;-36
2023/11/19 11:00:46;;;;;;;24.20;5.40;;;;;;;12.58;100.00;100897.16;5073450;28;20029;-36
2023/11/19 11:03:23;;;;;;;21.63;5.38;;;;;;;12.56;100.00;100877.63;5073323;28;20056;-35
2023/11/19 11:05:51;;;;;;;24.67;6.07;;;;;;;12.51;100.00;100886.47;5073894;28;20025;-36
2023/11/19 11:08:20;;;;;;;19.95;5.55;;;;;;;12.47;100.00;100879.88;5073322;28;20036;-36